Valladolid

latitud = 41° 39' 8''N | longitud = 004° 43' 24''W
690 metros sobre el nivel del mar | datos mensuales

Fecha, hora, temperatura, viento dirección y velocidad, humedad y presión.

  • 14-10-2018 19:00:00 | 12.30°C | Noroeste |10.00 km/h | 65.00% | 925.20 hPa
  • 14-10-2018 18:00:00 | 12.80°C | Noroeste |10.00 km/h | 60.00% | 925.00 hPa
  • 14-10-2018 17:00:00 | 12.80°C | Noroeste |17.00 km/h | 61.00% | 924.70 hPa
  • 14-10-2018 16:00:00 | 11.90°C | Oeste |11.00 km/h | 72.00% | 925.20 hPa
  • 14-10-2018 15:00:00 | 11.20°C | Noroeste |10.00 km/h | 75.00% | 925.40 hPa
  • 14-10-2018 14:00:00 | 12.30°C | Noroeste |11.00 km/h | 61.00% | 924.90 hPa
  • 14-10-2018 13:00:00 | 11.70°C | Noroeste |12.00 km/h | 69.00% | 924.80 hPa
  • 14-10-2018 12:00:00 | 10.60°C | Oeste |13.00 km/h | 73.00% | 924.40 hPa
  • 14-10-2018 11:00:00 | 10.60°C | Oeste |15.00 km/h | 76.00% | 923.80 hPa
  • 14-10-2018 10:00:00 | 9.50°C | Oeste |14.00 km/h | 83.00% | 922.40 hPa
  • 14-10-2018 09:00:00 | 10.30°C | Oeste |13.00 km/h | 82.00% | 921.90 hPa
  • 14-10-2018 08:00:00 | 11.20°C | Sudoeste |9.00 km/h | 84.00% | 921.20 hPa
  • 14-10-2018 07:00:00 | 13.60°C | Sudoeste |15.00 km/h | 73.00% | 920.80 hPa
  • 14-10-2018 06:00:00 | 16.90°C | Sudoeste |13.00 km/h | 66.00% | 920.30 hPa
  • 14-10-2018 05:00:00 | 16.90°C | Sur |13.00 km/h | 58.00% | 920.20 hPa
  • 14-10-2018 04:00:00 | 18.90°C | Sudoeste |17.00 km/h | 54.00% | 922.20 hPa
  • 14-10-2018 03:00:00 | 20.40°C | Sur |12.00 km/h | 52.00% | 921.80 hPa
  • 14-10-2018 02:00:00 | 19.40°C | Sudeste |8.00 km/h | 56.00% | 921.90 hPa
  • 14-10-2018 01:00:00 | 18.30°C | Sudeste |4.00 km/h | 63.00% | 923.00 hPa
  • 14-10-2018 00:00:00 | 18.70°C | Sur |3.00 km/h | 62.00% | 924.20 hPa
  • 13-10-2018 23:00:00 | 19.50°C | Sur |6.00 km/h | 57.00% | 924.90 hPa
  • 13-10-2018 22:00:00 | 20.40°C | Sur |5.00 km/h | 52.00% | 925.30 hPa
  • 13-10-2018 21:00:00 | 21.50°C | Sudeste |8.00 km/h | 49.00% | 926.00 hPa
  • 13-10-2018 20:00:00 | 22.80°C | Sudeste |5.00 km/h | 47.00% | 927.00 hPa